Levante — 9HOB7 — position and weather

sailwx.info

Track history (hours):
 
Tides and Currents Weather Stations Pressure Air Temp Water Temp Dewpoint Dewpoint Depression Visibility Wind Speed Wind Dir Waves Ship Positions

Levante

Last reported at 2017-Feb-18 11:21 UTC. Time now 2017-Feb-20 22:38 UTC.
Position N 36°01' W 005°09'.

Length 188.3 m; beam 28 m; draft 10.1 m.

Type: Ship. MMSI: 215440000.

Date/timePositionNaut miles runAvg speedWind from/ knotsBaromVisibWave heightAir tempDewpointWater temp
2017-Feb-18 11:21N 36°01' W 005°09'1012.3
2017-Feb-18 10:33N 35°59' W 005°21'1312.8
2017-Feb-18 09:33N 35°56' W 005°36'1312.9
2017-Feb-18 08:33N 35°54' W 005°52'1511.8
2017-Feb-18 07:15N 35°53' W 006°11'26211.0
2017-Feb-17 07:33N 34°09' W 011°04'1211.6
2017-Feb-17 06:33N 34°04' W 011°17'1211.6
2017-Feb-17 05:33N 33°59' W 011°30'1211.6
2017-Feb-17 04:31N 33°55' W 011°43'1311.6
2017-Feb-17 03:22N 33°49' W 011°58'911.6
2017-Feb-17 02:33N 33°45' W 012°08'1111.4
2017-Feb-17 01:33N 33°40' W 012°20'1211.5
2017-Feb-17 00:33N 33°36' W 012°33'1111.3
2017-Feb-16 23:34N 33°31' W 012°45'1411.0
2017-Feb-16 22:17N 33°25' W 013°01'811.2
2017-Feb-16 21:33N 33°22' W 013°10'1211.2
2017-Feb-16 20:30N 33°17' W 013°23'1211.4
2017-Feb-16 19:30N 33°12' W 013°35'1111.5
2017-Feb-16 18:33N 33°08' W 013°47'  
Track history (hours):
 
Tides and Currents Weather Stations Pressure Air Temp Water Temp Dewpoint Dewpoint Depression Visibility Wind Speed Wind Dir Waves Ship Positions

Levante

Last reported at 2017-Feb-18 11:21 UTC. Time now 2017-Feb-20 22:38 UTC.
Position N 36°01' W 005°09'.

Length 188.3 m; beam 28 m; draft 10.1 m.

Type: Ship. MMSI: 215440000.

Date/timePositionNaut miles runAvg speedWind from/ knotsBaromVisibWave heightAir tempDewpointWater temp
2017-Feb-18 11:21N 36°01' W 005°09'1012.3
2017-Feb-18 10:33N 35°59' W 005°21'1312.8
2017-Feb-18 09:33N 35°56' W 005°36'1312.9
2017-Feb-18 08:33N 35°54' W 005°52'1511.8
2017-Feb-18 07:15N 35°53' W 006°11'26211.0
2017-Feb-17 07:33N 34°09' W 011°04'1211.6
2017-Feb-17 06:33N 34°04' W 011°17'1211.6
2017-Feb-17 05:33N 33°59' W 011°30'1211.6
2017-Feb-17 04:31N 33°55' W 011°43'1311.6
2017-Feb-17 03:22N 33°49' W 011°58'911.6
2017-Feb-17 02:33N 33°45' W 012°08'1111.4
2017-Feb-17 01:33N 33°40' W 012°20'1211.5
2017-Feb-17 00:33N 33°36' W 012°33'1111.3
2017-Feb-16 23:34N 33°31' W 012°45'1411.0
2017-Feb-16 22:17N 33°25' W 013°01'811.2
2017-Feb-16 21:33N 33°22' W 013°10'1211.2
2017-Feb-16 20:30N 33°17' W 013°23'1211.4
2017-Feb-16 19:30N 33°12' W 013°35'1111.5
2017-Feb-16 18:33N 33°08' W 013°47'  

Dump ship's entire track history